createdAt,value
2024-02-04T00:01:44.587Z,101560.31
2024-02-04T00:04:47.544Z,101555.91
2024-02-04T00:07:50.435Z,101563.03
2024-02-04T00:10:53.318Z,101562.13
2024-02-04T00:13:56.110Z,101558.59
2024-02-04T00:17:00.534Z,101563.91
2024-02-04T00:20:04.865Z,101568.28
2024-02-04T00:23:07.655Z,101571.91
2024-02-04T00:26:10.558Z,101571.03
2024-02-04T00:29:13.441Z,101568.38
2024-02-04T00:32:17.578Z,101564.81
2024-02-04T00:35:20.913Z,101548.91
2024-02-04T00:38:23.720Z,101534.72
2024-02-04T00:41:26.946Z,101532.03
2024-02-04T00:44:29.819Z,101524.94
2024-02-04T00:47:33.957Z,101526.72
2024-02-04T00:50:36.767Z,101525.00
2024-02-04T00:53:39.788Z,101521.41
2024-02-04T00:56:42.908Z,101516.06
2024-02-04T00:59:45.733Z,101532.03
2024-02-04T01:02:49.884Z,101527.59
2024-02-04T01:05:53.190Z,101532.03
2024-02-04T01:08:55.984Z,101537.38
2024-02-04T01:11:59.047Z,101532.03
2024-02-04T01:15:02.365Z,101541.84
2024-02-04T01:18:06.875Z,101547.19
2024-02-04T01:21:10.563Z,101548.16
2024-02-04T01:24:13.358Z,101539.22
2024-02-04T01:27:16.135Z,101537.50
2024-02-04T01:30:19.005Z,101531.31
2024-02-04T01:33:23.238Z,101535.75
2024-02-04T01:36:26.655Z,101525.09
2024-02-04T01:39:29.494Z,101531.31
2024-02-04T01:42:32.379Z,101543.75
2024-02-04T01:45:35.222Z,101546.41
2024-02-04T01:48:40.043Z,101551.72
2024-02-04T01:51:43.541Z,101535.75
2024-02-04T01:54:46.904Z,101525.09
2024-02-04T01:57:50.094Z,101539.34
2024-02-04T02:00:53.989Z,101527.84
2024-02-04T02:03:58.397Z,101530.50
2024-02-04T02:07:02.069Z,101528.75
2024-02-04T02:10:07.170Z,101526.94
2024-02-04T02:13:16.825Z,101527.91
2024-02-04T02:16:23.689Z,101516.38
2024-02-04T02:19:42.696Z,101524.34
2024-02-04T02:22:51.297Z,101512.81
2024-02-04T02:25:55.862Z,101508.44
2024-02-04T02:28:58.683Z,101508.44
2024-02-04T02:32:04.377Z,101516.44
2024-02-04T02:35:07.665Z,101507.50
2024-02-04T02:38:17.299Z,101480.88
2024-02-04T02:41:23.610Z,101485.38
2024-02-04T02:44:27.663Z,101502.25
2024-02-04T02:47:31.568Z,101497.78
2024-02-04T02:50:34.474Z,101482.72
2024-02-04T02:53:37.261Z,101472.06
2024-02-04T02:56:41.504Z,101465.84
2024-02-04T02:59:44.394Z,101460.50
2024-02-04T03:02:47.175Z,101472.06
2024-02-04T03:05:50.051Z,101470.31
2024-02-04T03:08:53.212Z,101468.50
2024-02-04T03:11:57.342Z,101462.34
2024-02-04T03:15:00.400Z,101459.66
2024-02-04T03:18:03.379Z,101478.31
2024-02-04T03:21:06.731Z,101488.06
2024-02-04T03:24:09.665Z,101480.97
2024-02-04T03:27:14.177Z,101473.81
2024-02-04T03:30:17.563Z,101446.34
2024-02-04T03:33:20.510Z,101448.13
2024-02-04T03:36:26.481Z,101448.13
2024-02-04T03:39:29.585Z,101444.59
2024-02-04T03:42:33.855Z,101457.91
2024-02-04T03:45:38.412Z,101458.81
2024-02-04T03:48:41.346Z,101473.09
2024-02-04T03:51:44.297Z,101467.75
2024-02-04T03:54:47.163Z,101444.66
2024-02-04T03:57:51.467Z,101456.22
2024-02-04T04:00:54.371Z,101448.25
2024-02-04T04:03:57.253Z,101441.13
2024-02-04T04:07:00.218Z,101439.34
2024-02-04T04:10:03.184Z,101433.16
2024-02-04T04:13:07.466Z,101434.03
2024-02-04T04:16:10.321Z,101427.81
2024-02-04T04:19:13.283Z,101421.63
2024-02-04T04:22:16.189Z,101433.94
2024-02-04T04:25:19.084Z,101441.03
2024-02-04T04:28:23.271Z,101441.88
2024-02-04T04:31:26.062Z,101427.72
2024-02-04T04:34:28.899Z,101423.22
2024-02-04T04:37:31.688Z,101422.38
2024-02-04T04:40:34.463Z,101417.06
2024-02-04T04:43:40.268Z,101411.75
2024-02-04T04:46:43.818Z,101407.25
2024-02-04T04:49:46.712Z,101401.94
2024-02-04T04:52:49.592Z,101391.28
2024-02-04T04:55:52.375Z,101389.53
2024-02-04T04:58:56.591Z,101386.88
2024-02-04T05:01:59.460Z,101372.63
2024-02-04T05:05:02.390Z,101373.56
2024-02-04T05:08:06.267Z,101375.31
2024-02-04T05:11:09.098Z,101374.47
2024-02-04T05:14:13.284Z,101371.81
2024-02-04T05:17:16.073Z,101375.38
2024-02-04T05:20:18.860Z,101386.03
2024-02-04T05:23:21.647Z,101369.16
2024-02-04T05:26:24.509Z,101367.44
2024-02-04T05:29:28.747Z,101351.47
2024-02-04T05:32:31.565Z,101357.72
2024-02-04T05:35:34.441Z,101360.31
2024-02-04T05:38:37.280Z,101354.13
2024-02-04T05:41:40.182Z,101360.31
2024-02-04T05:44:44.309Z,101354.94
2024-02-04T05:47:47.192Z,101349.63
2024-02-04T05:50:50.101Z,101361.16
2024-02-04T05:53:52.914Z,101367.31
2024-02-04T05:56:55.733Z,101362.00
2024-02-04T06:00:00.586Z,101369.13
2024-02-04T06:03:03.559Z,101363.81
2024-02-04T06:06:06.836Z,101367.38
2024-02-04T06:09:11.677Z,101373.59
2024-02-04T06:12:14.482Z,101372.72
2024-02-04T06:15:18.775Z,101355.84
2024-02-04T06:18:21.640Z,101354.06
2024-02-04T06:21:24.623Z,101356.72
2024-02-04T06:24:27.553Z,101356.72
2024-02-04T06:27:30.617Z,101351.41
2024-02-04T06:30:34.877Z,101355.81
2024-02-04T06:33:38.519Z,101353.16
2024-02-04T06:36:45.154Z,101357.56
2024-02-04T06:39:48.035Z,101353.16
2024-02-04T06:42:50.900Z,101348.69
2024-02-04T06:45:55.092Z,101353.16
2024-02-04T06:48:58.209Z,101364.66
2024-02-04T06:52:01.202Z,101365.56
2024-02-04T06:55:04.304Z,101354.91
2024-02-04T06:58:07.275Z,101354.91
2024-02-04T07:01:12.538Z,101358.47
2024-02-04T07:04:15.698Z,101353.16
2024-02-04T07:07:18.695Z,101360.25
2024-02-04T07:10:21.740Z,101352.25
2024-02-04T07:13:24.547Z,101366.44
2024-02-04T07:16:28.709Z,101356.66
2024-02-04T07:19:31.593Z,101357.50
2024-02-04T07:22:37.871Z,101347.72
2024-02-04T07:25:41.157Z,101347.72
2024-02-04T07:28:43.998Z,101337.06
2024-02-04T07:31:48.199Z,101329.97
2024-02-04T07:34:51.132Z,101332.63
2024-02-04T07:37:54.040Z,101319.31
2024-02-04T07:40:59.857Z,101317.53
2024-02-04T07:44:02.650Z,101321.09
2024-02-04T07:47:06.986Z,101329.97
2024-02-04T07:50:11.068Z,101331.75
2024-02-04T07:53:14.513Z,101336.19
2024-02-04T07:56:17.388Z,101330.03
2024-02-04T07:59:20.202Z,101315.78
2024-02-04T08:02:24.326Z,101317.56
2024-02-04T08:05:27.091Z,101321.09
2024-02-04T08:08:29.878Z,101313.09
2024-02-04T08:11:32.681Z,101315.78
2024-02-04T08:14:35.470Z,101310.44
2024-02-04T08:17:39.567Z,101313.97
2024-02-04T08:20:42.643Z,101308.66
2024-02-04T08:23:45.966Z,101315.78
2024-02-04T08:26:49.057Z,101310.44
2024-02-04T08:29:51.872Z,101299.00
2024-02-04T08:32:56.114Z,101303.41
2024-02-04T08:35:59.053Z,101296.34
2024-02-04T08:39:01.841Z,101288.34
2024-02-04T08:42:04.891Z,101283.94
2024-02-04T08:45:08.722Z,101292.75
2024-02-04T08:48:12.905Z,101284.78
2024-02-04T08:51:17.323Z,101287.44
2024-02-04T08:54:20.989Z,101275.91
2024-02-04T08:57:23.895Z,101262.59
2024-02-04T09:00:26.706Z,101256.31
2024-02-04T09:03:32.006Z,101254.59
2024-02-04T09:06:34.931Z,101254.59
2024-02-04T09:09:38.389Z,101260.81
2024-02-04T09:12:41.297Z,101258.13
2024-02-04T09:15:44.268Z,101266.13
2024-02-04T09:18:48.669Z,101258.13
2024-02-04T09:21:51.623Z,101259.28
2024-02-04T09:24:54.728Z,101264.22
2024-02-04T09:27:57.658Z,101246.13
2024-02-04T09:31:00.562Z,101251.41
2024-02-04T09:34:05.140Z,101246.09
2024-02-04T09:37:08.605Z,101257.03
2024-02-04T09:40:13.178Z,101273.72
2024-02-04T09:43:17.017Z,101270.69
2024-02-04T09:46:20.439Z,101283.59
2024-02-04T09:49:25.318Z,101260.09
2024-02-04T09:52:31.589Z,101263.16
2024-02-04T09:55:34.893Z,101258.28
2024-02-04T09:58:37.964Z,101261.38
2024-02-04T10:01:42.316Z,101244.09
2024-02-04T10:04:46.659Z,101237.63
2024-02-04T10:07:49.839Z,101229.44
2024-02-04T10:10:53.040Z,101223.00
2024-02-04T10:13:55.934Z,101230.81
2024-02-04T10:16:58.953Z,101233.38
2024-02-04T10:20:04.071Z,101227.94
2024-02-04T10:23:07.072Z,101224.25
2024-02-04T10:26:09.981Z,101227.78
2024-02-04T10:29:12.796Z,101231.25
2024-02-04T10:32:19.164Z,101224.22
2024-02-04T10:35:27.066Z,101210.91
2024-02-04T10:38:29.851Z,101196.81
2024-02-04T10:41:36.038Z,101189.78
2024-02-04T10:44:42.898Z,101171.22
2024-02-04T10:47:53.496Z,101172.13
2024-02-04T10:51:00.909Z,101172.19
2024-02-04T10:54:05.213Z,101184.72
2024-02-04T10:57:15.043Z,101173.19
2024-02-04T11:00:19.884Z,101167.94
2024-02-04T11:03:28.479Z,101168.00
2024-02-04T11:06:34.341Z,101154.75
2024-02-04T11:09:37.996Z,101158.28
2024-02-04T11:12:43.654Z,101153.88
2024-02-04T11:15:47.036Z,101176.94
2024-02-04T11:19:10.350Z,101150.28
2024-02-04T11:22:32.474Z,101147.63
2024-02-04T11:25:45.573Z,101146.84
2024-02-04T11:28:48.665Z,101148.53
2024-02-04T11:31:51.809Z,101152.16
2024-02-04T11:34:57.145Z,101156.63
2024-02-04T11:38:01.657Z,101142.44
2024-02-04T11:41:05.013Z,101151.38
2024-02-04T11:44:10.851Z,101143.38
2024-02-04T11:47:14.246Z,101122.06
2024-02-04T11:50:31.781Z,101120.31
2024-02-04T11:53:36.522Z,101106.09
2024-02-04T11:56:39.664Z,101106.09
2024-02-04T11:59:42.732Z,101105.13
2024-02-04T12:02:45.568Z,101107.81
2024-02-04T12:05:48.810Z,101105.13
2024-02-04T12:08:53.114Z,101097.16
2024-02-04T12:11:56.734Z,101113.13
2024-02-04T12:15:00.133Z,101119.34
2024-02-04T12:18:08.224Z,101102.47
2024-02-04T12:21:11.232Z,101106.94
2024-02-04T12:24:16.582Z,101100.78
2024-02-04T12:27:19.379Z,101103.44
2024-02-04T12:30:22.455Z,101079.47
2024-02-04T12:33:25.346Z,101090.13
2024-02-04T12:36:28.679Z,101096.28
2024-02-04T12:39:34.585Z,101098.91
2024-02-04T12:42:37.708Z,101100.69
2024-02-04T12:45:40.797Z,101097.13
2024-02-04T12:48:43.766Z,101094.44
2024-02-04T12:51:46.639Z,101096.16
2024-02-04T12:54:51.676Z,101100.56
2024-02-04T12:58:04.972Z,101101.41
2024-02-04T13:01:07.981Z,101088.97
2024-02-04T13:04:11.056Z,101092.59
2024-02-04T13:07:17.836Z,101092.59
2024-02-04T13:10:22.265Z,101097.91
2024-02-04T13:13:28.056Z,101091.72
2024-02-04T13:16:31.569Z,101102.34
2024-02-04T13:19:35.619Z,101107.69
2024-02-04T13:22:38.523Z,101103.28
2024-02-04T13:25:42.809Z,101101.47
2024-02-04T13:28:45.711Z,101098.81
2024-02-04T13:31:48.634Z,101102.34
2024-02-04T13:34:59.877Z,101098.75
2024-02-04T13:38:09.989Z,101086.38
2024-02-04T13:41:14.182Z,101073.88
2024-02-04T13:44:17.013Z,101067.66
2024-02-04T13:47:19.852Z,101069.41
2024-02-04T13:50:22.917Z,101071.19
2024-02-04T13:53:25.818Z,101063.22
2024-02-04T13:56:30.980Z,101076.53
2024-02-04T13:59:33.753Z,101074.72
2024-02-04T14:02:36.750Z,101062.34
2024-02-04T14:05:40.668Z,101069.41
2024-02-04T14:08:43.436Z,101062.34
2024-02-04T14:11:48.061Z,101070.31
2024-02-04T14:14:50.890Z,101077.44
2024-02-04T14:17:53.924Z,101077.44
2024-02-04T14:20:56.725Z,101068.53
2024-02-04T14:23:59.529Z,101066.78
2024-02-04T14:27:03.956Z,101067.66
2024-02-04T14:30:08.131Z,101069.41
2024-02-04T14:33:11.014Z,101067.66
2024-02-04T14:36:13.842Z,101061.47
2024-02-04T14:39:17.068Z,101060.63
2024-02-04T14:42:21.286Z,101073.97
2024-02-04T14:45:24.514Z,101065.16
2024-02-04T14:48:27.440Z,101067.81
2024-02-04T14:51:31.783Z,101073.16
2024-02-04T14:54:34.734Z,101067.88
2024-02-04T14:57:38.912Z,101065.19
2024-02-04T15:00:41.973Z,101062.53
2024-02-04T15:03:44.979Z,101067.81
2024-02-04T15:06:48.264Z,101072.28
2024-02-04T15:09:54.749Z,101063.34
2024-02-04T15:12:59.755Z,101059.75
2024-02-04T15:16:03.633Z,101066.78
2024-02-04T15:19:20.933Z,101071.19
2024-02-04T15:22:24.708Z,101063.22
2024-02-04T15:25:28.409Z,101057.88
2024-02-04T15:28:33.168Z,101052.56
2024-02-04T15:31:37.175Z,101053.47
2024-02-04T15:34:40.683Z,101045.47
2024-02-04T15:37:43.580Z,101047.34
2024-02-04T15:40:46.543Z,101045.56
2024-02-04T15:43:50.794Z,101050.97
2024-02-04T15:46:55.206Z,101047.44
2024-02-04T15:49:58.738Z,101045.63
2024-02-04T15:53:02.230Z,101033.25
2024-02-04T15:56:08.868Z,101028.78
2024-02-04T15:59:14.989Z,101033.25
2024-02-04T16:02:18.632Z,101034.13
2024-02-04T16:05:23.039Z,101026.13
2024-02-04T16:08:26.582Z,101032.38
2024-02-04T16:11:38.209Z,101031.53
2024-02-04T16:14:46.658Z,101031.53
2024-02-04T16:17:50.872Z,101037.78
2024-02-04T16:20:53.744Z,101018.25
2024-02-04T16:23:56.841Z,101018.25
2024-02-04T16:27:00.050Z,101025.41
2024-02-04T16:30:05.394Z,101021.00
2024-02-04T16:33:08.253Z,101016.63
2024-02-04T16:36:11.163Z,101016.63
2024-02-04T16:39:15.222Z,101013.09
2024-02-04T16:42:18.009Z,101006.91
2024-02-04T16:45:22.390Z,101011.31
2024-02-04T16:48:25.415Z,101005.97
2024-02-04T16:51:28.201Z,101013.09
2024-02-04T16:54:31.103Z,101009.47
2024-02-04T16:57:34.051Z,101007.78
2024-02-04T17:00:38.950Z,101012.22
2024-02-04T17:03:42.228Z,101003.38
2024-02-04T17:06:45.646Z,101007.78
2024-02-04T17:09:51.175Z,101006.03
2024-02-04T17:12:54.657Z,100998.13
2024-02-04T17:15:59.916Z,100986.56
2024-02-04T17:19:09.296Z,100983.97
2024-02-04T17:22:15.970Z,100999.94
2024-02-04T17:25:20.696Z,101003.47
2024-02-04T17:28:24.208Z,100997.28
2024-02-04T17:31:29.119Z,100984.91
2024-02-04T17:34:32.642Z,100978.66
2024-02-04T17:37:36.891Z,100991.97
2024-02-04T17:40:39.687Z,100983.97
2024-02-04T17:43:42.471Z,100985.78
2024-02-04T17:46:47.639Z,100982.22
2024-02-04T17:49:50.555Z,100986.72
2024-02-04T17:52:53.518Z,100980.53
2024-02-04T17:55:56.277Z,100975.19
2024-02-04T17:58:59.077Z,100984.09
2024-02-04T18:02:03.427Z,100985.84
2024-02-04T18:05:07.144Z,100985.84
2024-02-04T18:08:10.223Z,100984.06
2024-02-04T18:11:19.498Z,100988.50
2024-02-04T18:14:22.454Z,100991.09
2024-02-04T18:17:27.948Z,100984.91
2024-02-04T18:20:31.545Z,100980.44
2024-02-04T18:23:34.340Z,100983.97
2024-02-04T18:26:37.338Z,100977.72
2024-02-04T18:29:41.388Z,100969.75
2024-02-04T18:32:45.586Z,100967.09
2024-02-04T18:35:48.388Z,100964.41
2024-02-04T18:38:51.404Z,100973.25
2024-02-04T18:41:54.213Z,100972.41
2024-02-04T18:44:57.027Z,100963.56
2024-02-04T18:48:01.301Z,100969.75
2024-02-04T18:51:04.431Z,100975.06
2024-02-04T18:54:07.216Z,100956.44
2024-02-04T18:57:10.109Z,100952.91
2024-02-04T19:00:14.151Z,100955.59
2024-02-04T19:03:18.307Z,100950.25
2024-02-04T19:06:27.634Z,100959.09
2024-02-04T19:09:30.716Z,100953.78
2024-02-04T19:12:33.593Z,100943.13
2024-02-04T19:15:37.467Z,100945.78
2024-02-04T19:18:41.629Z,100939.53
2024-02-04T19:21:45.562Z,100953.78
2024-02-04T19:24:48.447Z,100943.97
2024-02-04T19:27:52.630Z,100951.09
2024-02-04T19:30:55.392Z,100956.44
2024-02-04T19:33:59.616Z,100959.09
2024-02-04T19:37:02.479Z,100958.28
2024-02-04T19:40:06.424Z,100959.16
2024-02-04T19:43:09.357Z,100964.53
2024-02-04T19:46:12.190Z,100966.25
2024-02-04T19:49:16.516Z,100957.47
2024-02-04T19:52:19.419Z,100958.34
2024-02-04T19:55:22.772Z,100955.69
2024-02-04T19:58:25.934Z,100938.84
2024-02-04T20:01:28.841Z,100946.84
2024-02-04T20:04:35.248Z,100932.59
2024-02-04T20:07:38.244Z,100937.94
2024-02-04T20:10:41.232Z,100930.84
2024-02-04T20:13:44.378Z,100921.94
2024-02-04T20:16:47.272Z,100924.63
2024-02-04T20:19:52.582Z,100922.81
2024-02-04T20:22:57.442Z,100913.00
2024-02-04T20:26:00.570Z,100907.69
2024-02-04T20:29:04.015Z,100901.44
2024-02-04T20:32:07.259Z,100897.88
2024-02-04T20:35:12.074Z,100896.94
2024-02-04T20:38:16.500Z,100899.59
2024-02-04T20:41:20.422Z,100900.41
2024-02-04T20:44:23.383Z,100902.13
2024-02-04T20:47:26.177Z,100890.44
2024-02-04T20:50:30.592Z,100878.00
2024-02-04T20:53:35.756Z,100872.69
2024-02-04T20:56:38.603Z,100877.09
2024-02-04T20:59:41.555Z,100872.59
2024-02-04T21:02:44.794Z,100866.44
2024-02-04T21:05:49.029Z,100866.44
2024-02-04T21:08:51.838Z,100864.69
2024-02-04T21:11:54.723Z,100866.50
2024-02-04T21:14:57.671Z,100859.38
2024-02-04T21:18:00.567Z,100862.03
2024-02-04T21:21:06.105Z,100854.06
2024-02-04T21:24:09.128Z,100847.81
2024-02-04T21:27:11.964Z,100843.41
2024-02-04T21:30:15.222Z,100850.47
2024-02-04T21:33:20.209Z,100838.94
2024-02-04T21:36:24.462Z,100839.72
2024-02-04T21:39:27.423Z,100837.94
2024-02-04T21:42:30.478Z,100846.81
2024-02-04T21:45:33.710Z,100836.97
2024-02-04T21:48:36.741Z,100837.06
2024-02-04T21:51:41.213Z,100831.66
2024-02-04T21:54:44.202Z,100813.03
2024-02-04T21:57:47.109Z,100805.13
2024-02-04T22:00:50.253Z,100809.53
2024-02-04T22:03:53.186Z,100795.25
2024-02-04T22:06:57.576Z,100786.41
2024-02-04T22:10:00.651Z,100781.94
2024-02-04T22:13:03.621Z,100776.63
2024-02-04T22:16:07.270Z,100777.47
2024-02-04T22:19:10.533Z,100775.69
2024-02-04T22:22:15.035Z,100773.88
2024-02-04T22:25:25.662Z,100768.53
2024-02-04T22:28:28.581Z,100776.47
2024-02-04T22:31:32.462Z,100774.72
2024-02-04T22:34:35.382Z,100771.16
2024-02-04T22:37:39.647Z,100771.16
2024-02-04T22:40:42.543Z,100766.66
2024-02-04T22:43:45.444Z,100765.81
2024-02-04T22:46:49.002Z,100772.94
2024-02-04T22:49:53.855Z,100762.28
2024-02-04T22:52:58.153Z,100761.34
2024-02-04T22:56:01.202Z,100762.28
2024-02-04T22:59:04.038Z,100754.31
2024-02-04T23:02:07.831Z,100759.72
2024-02-04T23:05:11.005Z,100763.22
2024-02-04T23:08:15.775Z,100745.53
2024-02-04T23:11:18.661Z,100733.13
2024-02-04T23:14:21.474Z,100731.44
2024-02-04T23:17:24.289Z,100731.44
2024-02-04T23:20:27.209Z,100721.78
2024-02-04T23:23:31.365Z,100715.59
2024-02-04T23:26:34.425Z,100723.59
2024-02-04T23:29:37.257Z,100717.47
2024-02-04T23:32:40.134Z,100717.47
2024-02-04T23:35:43.344Z,100710.44
2024-02-04T23:38:47.945Z,100704.25
2024-02-04T23:41:50.749Z,100698.91
2024-02-04T23:44:53.587Z,100691.84
2024-02-04T23:47:56.415Z,100691.94
2024-02-04T23:50:59.223Z,100682.16
2024-02-04T23:54:03.960Z,100680.38
2024-02-04T23:57:06.949Z,100679.50
